sensor_id;sensor_type;location;lat;lon;timestamp;pressure;altitude;pressure_sealevel;temperature;humidity
1832;BME280;1680;48.106;11.708;2023-06-22T00:02:12;95601.06;;;22.60;81.42
1832;BME280;1680;48.106;11.708;2023-06-22T00:04:39;95579.47;;;22.56;81.45
1832;BME280;1680;48.106;11.708;2023-06-22T00:07:06;95566.66;;;22.40;82.19
1832;BME280;1680;48.106;11.708;2023-06-22T00:09:34;95559.16;;;22.42;82.17
1832;BME280;1680;48.106;11.708;2023-06-22T00:12:01;95560.03;;;22.38;82.43
1832;BME280;1680;48.106;11.708;2023-06-22T00:14:28;95566.56;;;22.45;82.10
1832;BME280;1680;48.106;11.708;2023-06-22T00:16:56;95569.56;;;22.44;82.00
1832;BME280;1680;48.106;11.708;2023-06-22T00:19:25;95577.59;;;22.25;83.42
1832;BME280;1680;48.106;11.708;2023-06-22T00:21:53;95585.72;;;22.20;83.38
1832;BME280;1680;48.106;11.708;2023-06-22T00:24:20;95582.06;;;22.30;82.31
1832;BME280;1680;48.106;11.708;2023-06-22T00:26:48;95499.72;;;21.86;82.56
1832;BME280;1680;48.106;11.708;2023-06-22T00:29:16;95583.94;;;22.29;82.73
1832;BME280;1680;48.106;11.708;2023-06-22T00:31:44;95587.75;;;22.10;83.76
1832;BME280;1680;48.106;11.708;2023-06-22T00:34:11;95591.06;;;22.20;83.33
1832;BME280;1680;48.106;11.708;2023-06-22T00:36:39;95581.13;;;22.07;83.94
1832;BME280;1680;48.106;11.708;2023-06-22T00:39:07;95566.06;;;22.11;83.81
1832;BME280;1680;48.106;11.708;2023-06-22T00:41:35;95576.56;;;22.08;84.46
1832;BME280;1680;48.106;11.708;2023-06-22T00:44:02;95582.59;;;22.13;84.03
1832;BME280;1680;48.106;11.708;2023-06-22T00:46:30;95581.25;;;21.97;85.02
1832;BME280;1680;48.106;11.708;2023-06-22T00:48:57;95573.50;;;21.82;85.75
1832;BME280;1680;48.106;11.708;2023-06-22T00:51:25;95571.13;;;21.81;85.87
1832;BME280;1680;48.106;11.708;2023-06-22T00:53:54;95580.38;;;21.70;86.79
1832;BME280;1680;48.106;11.708;2023-06-22T00:56:22;95568.75;;;21.61;87.03
1832;BME280;1680;48.106;11.708;2023-06-22T00:58:51;95577.59;;;21.56;87.36
1832;BME280;1680;48.106;11.708;2023-06-22T01:01:19;95575.53;;;21.90;85.44
1832;BME280;1680;48.106;11.708;2023-06-22T01:03:49;95575.41;;;21.63;87.25
1832;BME280;1680;48.106;11.708;2023-06-22T01:06:22;95578.69;;;21.55;87.61
1832;BME280;1680;48.106;11.708;2023-06-22T01:09:02;95569.97;;;21.50;88.53
1832;BME280;1680;48.106;11.708;2023-06-22T01:11:37;95572.47;;;21.42;88.46
1832;BME280;1680;48.106;11.708;2023-06-22T01:14:14;95566.63;;;21.40;88.84
1832;BME280;1680;48.106;11.708;2023-06-22T01:16:44;95561.97;;;21.32;89.31
1832;BME280;1680;48.106;11.708;2023-06-22T01:19:25;95558.22;;;21.33;89.26
1832;BME280;1680;48.106;11.708;2023-06-22T01:21:56;95555.56;;;21.33;89.66
1832;BME280;1680;48.106;11.708;2023-06-22T01:24:30;95552.44;;;21.26;89.96
1832;BME280;1680;48.106;11.708;2023-06-22T01:27:11;95501.59;;;20.99;89.09
1832;BME280;1680;48.106;11.708;2023-06-22T01:29:43;95550.84;;;21.25;90.40
1832;BME280;1680;48.106;11.708;2023-06-22T01:32:11;95546.53;;;21.10;91.49
1832;BME280;1680;48.106;11.708;2023-06-22T01:34:39;95538.53;;;21.10;91.42
1832;BME280;1680;48.106;11.708;2023-06-22T01:37:07;95542.13;;;21.19;91.52
1832;BME280;1680;48.106;11.708;2023-06-22T01:39:35;95538.88;;;21.04;91.87
1832;BME280;1680;48.106;11.708;2023-06-22T01:42:04;95532.94;;;21.07;91.58
1832;BME280;1680;48.106;11.708;2023-06-22T01:44:32;95536.69;;;21.06;91.56
1832;BME280;1680;48.106;11.708;2023-06-22T01:47:02;95524.00;;;20.98;92.10
1832;BME280;1680;48.106;11.708;2023-06-22T01:49:30;95520.81;;;20.96;92.40
1832;BME280;1680;48.106;11.708;2023-06-22T01:51:58;95525.34;;;21.19;91.23
1832;BME280;1680;48.106;11.708;2023-06-22T01:54:25;95516.16;;;21.06;92.69
1832;BME280;1680;48.106;11.708;2023-06-22T01:56:52;95514.56;;;21.05;93.90
1832;BME280;1680;48.106;11.708;2023-06-22T01:59:25;95512.00;;;21.19;93.54
1832;BME280;1680;48.106;11.708;2023-06-22T02:01:58;95518.81;;;21.25;93.98
1832;BME280;1680;48.106;11.708;2023-06-22T02:04:33;95504.41;;;21.26;94.40
1832;BME280;1680;48.106;11.708;2023-06-22T02:07:05;95503.25;;;21.32;94.82
1832;BME280;1680;48.106;11.708;2023-06-22T02:09:37;95515.00;;;21.31;95.00
1832;BME280;1680;48.106;11.708;2023-06-22T02:12:07;95522.13;;;21.53;92.95
1832;BME280;1680;48.106;11.708;2023-06-22T02:14:36;95530.88;;;21.41;94.33
1832;BME280;1680;48.106;11.708;2023-06-22T02:17:04;95522.84;;;21.41;93.76
1832;BME280;1680;48.106;11.708;2023-06-22T02:19:37;95528.63;;;21.29;94.38
1832;BME280;1680;48.106;11.708;2023-06-22T02:22:05;95534.78;;;21.30;93.34
1832;BME280;1680;48.106;11.708;2023-06-22T02:24:32;95525.91;;;21.16;94.15
1832;BME280;1680;48.106;11.708;2023-06-22T02:27:00;95532.38;;;21.10;94.10
1832;BME280;1680;48.106;11.708;2023-06-22T02:29:27;95529.19;;;21.08;94.05
1832;BME280;1680;48.106;11.708;2023-06-22T02:31:55;95525.09;;;20.97;94.74
1832;BME280;1680;48.106;11.708;2023-06-22T02:34:22;95535.03;;;21.10;93.79
1832;BME280;1680;48.106;11.708;2023-06-22T02:36:51;95528.47;;;21.02;94.33
1832;BME280;1680;48.106;11.708;2023-06-22T02:39:22;95548.53;;;21.00;93.81
1832;BME280;1680;48.106;11.708;2023-06-22T02:41:50;95547.16;;;20.79;95.75
1832;BME280;1680;48.106;11.708;2023-06-22T02:44:18;95551.56;;;20.65;97.02
1832;BME280;1680;48.106;11.708;2023-06-22T02:46:47;95555.56;;;20.67;96.86
1832;BME280;1680;48.106;11.708;2023-06-22T02:49:14;95500.94;;;20.18;97.73
1832;BME280;1680;48.106;11.708;2023-06-22T02:51:47;95567.13;;;20.58;97.30
1832;BME280;1680;48.106;11.708;2023-06-22T02:54:16;95565.47;;;20.62;96.92
1832;BME280;1680;48.106;11.708;2023-06-22T02:56:43;95566.66;;;20.51;98.21
1832;BME280;1680;48.106;11.708;2023-06-22T02:59:11;95566.22;;;20.44;98.69
1832;BME280;1680;48.106;11.708;2023-06-22T03:01:38;95561.44;;;20.41;98.69
1832;BME280;1680;48.106;11.708;2023-06-22T03:04:07;95499.41;;;20.12;97.87
1832;BME280;1680;48.106;11.708;2023-06-22T03:06:34;95556.47;;;20.58;97.12
1832;BME280;1680;48.106;11.708;2023-06-22T03:09:03;95559.81;;;20.45;97.77
1832;BME280;1680;48.106;11.708;2023-06-22T03:11:32;95558.31;;;20.34;98.55
1832;BME280;1680;48.106;11.708;2023-06-22T03:14:00;95562.56;;;20.35;99.11
1832;BME280;1680;48.106;11.708;2023-06-22T03:16:28;95549.75;;;20.37;98.79
1832;BME280;1680;48.106;11.708;2023-06-22T03:18:55;95550.81;;;20.36;98.58
1832;BME280;1680;48.106;11.708;2023-06-22T03:21:23;95555.03;;;20.42;98.81
1832;BME280;1680;48.106;11.708;2023-06-22T03:23:50;95553.03;;;20.29;99.58
1832;BME280;1680;48.106;11.708;2023-06-22T03:26:18;95526.38;;;20.06;99.80
1832;BME280;1680;48.106;11.708;2023-06-22T03:28:46;95544.56;;;20.22;100.00
1832;BME280;1680;48.106;11.708;2023-06-22T03:31:14;95543.50;;;20.23;99.48
1832;BME280;1680;48.106;11.708;2023-06-22T03:33:41;95540.63;;;20.20;99.88
1832;BME280;1680;48.106;11.708;2023-06-22T03:36:08;95543.63;;;20.13;100.00
1832;BME280;1680;48.106;11.708;2023-06-22T03:38:35;95542.47;;;20.19;100.00
1832;BME280;1680;48.106;11.708;2023-06-22T03:41:02;95550.19;;;20.21;100.00
1832;BME280;1680;48.106;11.708;2023-06-22T03:43:30;95551.19;;;20.25;100.00
1832;BME280;1680;48.106;11.708;2023-06-22T03:45:58;95547.25;;;20.22;100.00
1832;BME280;1680;48.106;11.708;2023-06-22T03:48:25;95555.34;;;20.12;100.00
1832;BME280;1680;48.106;11.708;2023-06-22T03:50:53;95547.34;;;20.12;100.00
1832;BME280;1680;48.106;11.708;2023-06-22T03:53:20;95562.66;;;20.25;100.00
1832;BME280;1680;48.106;11.708;2023-06-22T03:55:48;95558.84;;;20.31;100.00
1832;BME280;1680;48.106;11.708;2023-06-22T03:58:16;95558.38;;;20.29;100.00
1832;BME280;1680;48.106;11.708;2023-06-22T04:00:44;95563.38;;;20.36;100.00
1832;BME280;1680;48.106;11.708;2023-06-22T04:03:14;95559.63;;;20.37;100.00
1832;BME280;1680;48.106;11.708;2023-06-22T04:05:41;95556.63;;;20.43;100.00
1832;BME280;1680;48.106;11.708;2023-06-22T04:08:08;95551.75;;;20.50;100.00
1832;BME280;1680;48.106;11.708;2023-06-22T04:10:36;95564.97;;;20.60;100.00
1832;BME280;1680;48.106;11.708;2023-06-22T04:13:03;95564.50;;;20.53;100.00
1832;BME280;1680;48.106;11.708;2023-06-22T04:15:30;95568.81;;;20.72;100.00
1832;BME280;1680;48.106;11.708;2023-06-22T04:17:58;95570.31;;;20.83;100.00
1832;BME280;1680;48.106;11.708;2023-06-22T04:20:26;95564.66;;;20.90;100.00
1832;BME280;1680;48.106;11.708;2023-06-22T04:22:54;95559.88;;;20.87;100.00
1832;BME280;1680;48.106;11.708;2023-06-22T04:25:22;95547.78;;;20.94;100.00
1832;BME280;1680;48.106;11.708;2023-06-22T04:27:49;95560.22;;;21.04;100.00
1832;BME280;1680;48.106;11.708;2023-06-22T04:30:16;95551.25;;;21.13;100.00
1832;BME280;1680;48.106;11.708;2023-06-22T04:32:44;95544.84;;;21.14;100.00
1832;BME280;1680;48.106;11.708;2023-06-22T04:35:23;95561.09;;;21.36;100.00
1832;BME280;1680;48.106;11.708;2023-06-22T04:37:53;95524.59;;;21.13;100.00
1832;BME280;1680;48.106;11.708;2023-06-22T04:40:21;95571.19;;;21.39;100.00
1832;BME280;1680;48.106;11.708;2023-06-22T04:42:49;95553.50;;;21.43;100.00
1832;BME280;1680;48.106;11.708;2023-06-22T04:45:19;95561.09;;;21.54;100.00
1832;BME280;1680;48.106;11.708;2023-06-22T04:47:47;95561.03;;;21.59;99.84
1832;BME280;1680;48.106;11.708;2023-06-22T04:50:14;95550.06;;;21.61;99.68
1832;BME280;1680;48.106;11.708;2023-06-22T04:52:42;95555.97;;;21.76;97.40
1832;BME280;1680;48.106;11.708;2023-06-22T04:55:12;95505.47;;;21.43;95.95
1832;BME280;1680;48.106;11.708;2023-06-22T04:57:43;95551.72;;;21.75;97.09
1832;BME280;1680;48.106;11.708;2023-06-22T05:00:14;95545.38;;;21.71;97.34
1832;BME280;1680;48.106;11.708;2023-06-22T05:02:43;95547.22;;;21.89;95.66
1832;BME280;1680;48.106;11.708;2023-06-22T05:05:11;95548.38;;;21.83;97.00
1832;BME280;1680;48.106;11.708;2023-06-22T05:10:10;95495.16;;;21.37;97.67
1832;BME280;1680;48.106;11.708;2023-06-22T05:12:39;95542.47;;;21.86;97.33
1832;BME280;1680;48.106;11.708;2023-06-22T05:15:08;95535.72;;;21.89;97.21
1832;BME280;1680;48.106;11.708;2023-06-22T05:17:36;95494.84;;;21.56;97.75
1832;BME280;1680;48.106;11.708;2023-06-22T05:20:09;95488.16;;;21.59;98.49
1832;BME280;1680;48.106;11.708;2023-06-22T05:22:36;95533.88;;;21.89;97.84
1832;BME280;1680;48.106;11.708;2023-06-22T05:25:05;95521.72;;;21.97;97.54
1832;BME280;1680;48.106;11.708;2023-06-22T05:27:32;95525.09;;;22.02;97.63
1832;BME280;1680;48.106;11.708;2023-06-22T05:30:07;95530.94;;;22.04;96.14
1832;BME280;1680;48.106;11.708;2023-06-22T05:32:34;95540.38;;;22.15;95.98
1832;BME280;1680;48.106;11.708;2023-06-22T05:35:02;95533.13;;;22.34;93.30
1832;BME280;1680;48.106;11.708;2023-06-22T05:37:29;95543.22;;;22.37;93.40
1832;BME280;1680;48.106;11.708;2023-06-22T05:39:56;95536.69;;;22.70;91.74
1832;BME280;1680;48.106;11.708;2023-06-22T05:42:24;95540.47;;;22.69;91.70
1832;BME280;1680;48.106;11.708;2023-06-22T05:44:51;95536.09;;;22.73;90.87
1832;BME280;1680;48.106;11.708;2023-06-22T05:47:20;95534.31;;;22.68;90.20
1832;BME280;1680;48.106;11.708;2023-06-22T05:49:48;95528.19;;;22.68;91.19
1832;BME280;1680;48.106;11.708;2023-06-22T05:52:15;95534.81;;;22.84;90.41
1832;BME280;1680;48.106;11.708;2023-06-22T05:54:42;95537.78;;;22.82;90.15
1832;BME280;1680;48.106;11.708;2023-06-22T05:57:09;95534.69;;;22.89;89.60
1832;BME280;1680;48.106;11.708;2023-06-22T05:59:37;95537.50;;;22.84;89.21
1832;BME280;1680;48.106;11.708;2023-06-22T06:02:04;95535.78;;;22.88;89.74
1832;BME280;1680;48.106;11.708;2023-06-22T06:04:33;95537.28;;;22.94;89.22
1832;BME280;1680;48.106;11.708;2023-06-22T06:07:01;95534.31;;;23.09;88.75
1832;BME280;1680;48.106;11.708;2023-06-22T06:09:28;95548.31;;;23.41;87.30
1832;BME280;1680;48.106;11.708;2023-06-22T06:11:55;95543.56;;;23.38;87.18
1832;BME280;1680;48.106;11.708;2023-06-22T06:14:22;95542.69;;;23.43;86.48
1832;BME280;1680;48.106;11.708;2023-06-22T06:16:49;95527.56;;;23.47;86.37
1832;BME280;1680;48.106;11.708;2023-06-22T06:19:17;95537.34;;;23.64;86.00
1832;BME280;1680;48.106;11.708;2023-06-22T06:21:45;95531.06;;;23.69;86.64
1832;BME280;1680;48.106;11.708;2023-06-22T06:24:12;95526.00;;;23.81;85.74
1832;BME280;1680;48.106;11.708;2023-06-22T06:26:40;95520.81;;;23.84;85.18
1832;BME280;1680;48.106;11.708;2023-06-22T06:29:07;95521.44;;;24.03;83.60
1832;BME280;1680;48.106;11.708;2023-06-22T06:31:34;95518.47;;;24.13;84.03
1832;BME280;1680;48.106;11.708;2023-06-22T06:34:01;95519.19;;;24.27;82.96
1832;BME280;1680;48.106;11.708;2023-06-22T06:36:29;95513.75;;;24.41;81.00
1832;BME280;1680;48.106;11.708;2023-06-22T06:38:57;95517.69;;;24.43;80.15
1832;BME280;1680;48.106;11.708;2023-06-22T06:41:24;95515.28;;;24.63;79.84
1832;BME280;1680;48.106;11.708;2023-06-22T06:43:52;95507.44;;;24.75;78.34
1832;BME280;1680;48.106;11.708;2023-06-22T06:46:19;95500.31;;;24.71;79.14
1832;BME280;1680;48.106;11.708;2023-06-22T06:48:46;95514.09;;;24.78;78.67
1832;BME280;1680;48.106;11.708;2023-06-22T06:51:14;95519.84;;;25.10;77.02
1832;BME280;1680;48.106;11.708;2023-06-22T06:53:41;95515.00;;;25.29;76.20
1832;BME280;1680;48.106;11.708;2023-06-22T06:56:10;95518.97;;;25.32;75.92
1832;BME280;1680;48.106;11.708;2023-06-22T06:58:38;95506.78;;;25.43;75.02
1832;BME280;1680;48.106;11.708;2023-06-22T07:01:05;95455.47;;;25.36;74.64
1832;BME280;1680;48.106;11.708;2023-06-22T07:03:33;95510.91;;;25.74;73.50
1832;BME280;1680;48.106;11.708;2023-06-22T07:06:00;95507.44;;;25.73;72.36
1832;BME280;1680;48.106;11.708;2023-06-22T07:08:27;95519.63;;;25.96;71.93
1832;BME280;1680;48.106;11.708;2023-06-22T07:10:55;95517.09;;;25.91;72.18
1832;BME280;1680;48.106;11.708;2023-06-22T07:13:23;95510.25;;;26.11;72.92
1832;BME280;1680;48.106;11.708;2023-06-22T07:15:51;95518.25;;;26.36;70.63
1832;BME280;1680;48.106;11.708;2023-06-22T07:18:18;95516.09;;;26.21;70.27
1832;BME280;1680;48.106;11.708;2023-06-22T07:20:45;95511.63;;;26.42;69.11
1832;BME280;1680;48.106;11.708;2023-06-22T07:23:12;95517.78;;;26.43;69.06
1832;BME280;1680;48.106;11.708;2023-06-22T07:25:40;95509.03;;;26.62;68.42
1832;BME280;1680;48.106;11.708;2023-06-22T07:28:07;95512.78;;;26.70;66.73
1832;BME280;1680;48.106;11.708;2023-06-22T07:30:36;95507.97;;;26.84;66.41
1832;BME280;1680;48.106;11.708;2023-06-22T07:33:03;95505.84;;;26.98;65.52
1832;BME280;1680;48.106;11.708;2023-06-22T07:35:33;95506.94;;;26.97;64.81
1832;BME280;1680;48.106;11.708;2023-06-22T07:38:00;95496.28;;;27.09;65.36
1832;BME280;1680;48.106;11.708;2023-06-22T07:40:29;95500.28;;;27.32;63.67
1832;BME280;1680;48.106;11.708;2023-06-22T07:42:56;95481.25;;;27.08;64.34
1832;BME280;1680;48.106;11.708;2023-06-22T07:45:23;95483.94;;;27.08;64.53
1832;BME280;1680;48.106;11.708;2023-06-22T07:47:52;95487.34;;;27.46;64.73
1832;BME280;1680;48.106;11.708;2023-06-22T07:50:19;95483.66;;;27.70;62.55
1832;BME280;1680;48.106;11.708;2023-06-22T07:52:46;95476.09;;;27.96;61.72
1832;BME280;1680;48.106;11.708;2023-06-22T07:55:14;95474.53;;;27.95;60.72
1832;BME280;1680;48.106;11.708;2023-06-22T07:57:41;95462.59;;;27.84;60.09
1832;BME280;1680;48.106;11.708;2023-06-22T08:00:09;95478.88;;;28.08;58.28
1832;BME280;1680;48.106;11.708;2023-06-22T08:02:41;95475.13;;;28.33;57.25
1832;BME280;1680;48.106;11.708;2023-06-22T08:05:10;95442.69;;;28.21;57.84
1832;BME280;1680;48.106;11.708;2023-06-22T08:07:37;95489.91;;;28.60;56.59
1832;BME280;1680;48.106;11.708;2023-06-22T08:10:08;95486.75;;;28.81;56.23
1832;BME280;1680;48.106;11.708;2023-06-22T08:12:37;95496.56;;;28.86;55.24
1832;BME280;1680;48.106;11.708;2023-06-22T08:15:05;95492.69;;;28.51;56.03
1832;BME280;1680;48.106;11.708;2023-06-22T08:17:36;95487.31;;;28.63;55.70
1832;BME280;1680;48.106;11.708;2023-06-22T08:20:04;95488.03;;;28.84;55.46
1832;BME280;1680;48.106;11.708;2023-06-22T08:22:38;95483.97;;;28.90;55.47
1832;BME280;1680;48.106;11.708;2023-06-22T08:25:07;95483.06;;;28.86;55.05
1832;BME280;1680;48.106;11.708;2023-06-22T08:27:34;95480.13;;;29.03;54.52
1832;BME280;1680;48.106;11.708;2023-06-22T08:30:02;95475.28;;;29.20;53.94
1832;BME280;1680;48.106;11.708;2023-06-22T08:32:29;95475.34;;;29.36;53.72
1832;BME280;1680;48.106;11.708;2023-06-22T08:34:58;95475.56;;;29.31;53.28
1832;BME280;1680;48.106;11.708;2023-06-22T08:37:25;95472.91;;;29.43;52.87
1832;BME280;1680;48.106;11.708;2023-06-22T08:39:59;95475.25;;;29.32;52.34
1832;BME280;1680;48.106;11.708;2023-06-22T08:42:26;95472.88;;;29.55;52.60
1832;BME280;1680;48.106;11.708;2023-06-22T08:44:53;95476.72;;;29.30;52.05
1832;BME280;1680;48.106;11.708;2023-06-22T08:47:21;95478.84;;;29.48;52.60
1832;BME280;1680;48.106;11.708;2023-06-22T08:49:48;95471.19;;;29.77;51.68
1832;BME280;1680;48.106;11.708;2023-06-22T08:52:17;95419.25;;;29.45;51.55
1832;BME280;1680;48.106;11.708;2023-06-22T08:54:45;95465.28;;;29.60;51.61
1832;BME280;1680;48.106;11.708;2023-06-22T08:57:13;95466.31;;;29.83;51.79
1832;BME280;1680;48.106;11.708;2023-06-22T08:59:41;95464.69;;;30.06;50.36
1832;BME280;1680;48.106;11.708;2023-06-22T09:02:08;95458.34;;;30.29;49.10
1832;BME280;1680;48.106;11.708;2023-06-22T09:04:35;95456.56;;;30.21;49.52
1832;BME280;1680;48.106;11.708;2023-06-22T09:07:03;95458.91;;;30.50;48.21
1832;BME280;1680;48.106;11.708;2023-06-22T09:09:30;95457.22;;;30.30;48.67
1832;BME280;1680;48.106;11.708;2023-06-22T09:11:57;95460.53;;;30.39;48.91
1832;BME280;1680;48.106;11.708;2023-06-22T09:14:26;95451.03;;;30.45;48.41
1832;BME280;1680;48.106;11.708;2023-06-22T09:16:53;95460.91;;;30.53;49.56
1832;BME280;1680;48.106;11.708;2023-06-22T09:19:21;95460.81;;;30.65;48.53
1832;BME280;1680;48.106;11.708;2023-06-22T09:21:48;95446.97;;;31.01;49.98
1832;BME280;1680;48.106;11.708;2023-06-22T09:24:15;95455.47;;;31.15;47.72
1832;BME280;1680;48.106;11.708;2023-06-22T09:26:42;95460.75;;;31.08;48.07
1832;BME280;1680;48.106;11.708;2023-06-22T09:29:10;95453.97;;;31.02;48.52
1832;BME280;1680;48.106;11.708;2023-06-22T09:31:38;95455.09;;;31.01;48.19
1832;BME280;1680;48.106;11.708;2023-06-22T09:34:06;95442.00;;;31.03;47.63
1832;BME280;1680;48.106;11.708;2023-06-22T09:36:33;95452.78;;;31.34;48.83
1832;BME280;1680;48.106;11.708;2023-06-22T09:39:00;95437.06;;;31.58;48.59
1832;BME280;1680;48.106;11.708;2023-06-22T09:41:31;95448.59;;;31.55;46.66
1832;BME280;1680;48.106;11.708;2023-06-22T09:43:58;95440.28;;;31.64;46.63
1832;BME280;1680;48.106;11.708;2023-06-22T09:46:25;95429.06;;;31.46;45.74
1832;BME280;1680;48.106;11.708;2023-06-22T09:48:54;95435.44;;;31.38;46.74
1832;BME280;1680;48.106;11.708;2023-06-22T09:51:22;95438.94;;;31.73;46.15
1832;BME280;1680;48.106;11.708;2023-06-22T09:53:49;95440.25;;;32.01;45.80
1832;BME280;1680;48.106;11.708;2023-06-22T09:56:16;95436.09;;;32.07;44.67
1832;BME280;1680;48.106;11.708;2023-06-22T09:58:45;95420.28;;;32.09;45.29
1832;BME280;1680;48.106;11.708;2023-06-22T10:01:13;95430.41;;;32.12;44.91
1832;BME280;1680;48.106;11.708;2023-06-22T10:03:41;95423.06;;;32.35;44.81
1832;BME280;1680;48.106;11.708;2023-06-22T10:06:09;95432.00;;;32.58;43.23
1832;BME280;1680;48.106;11.708;2023-06-22T10:08:37;95420.88;;;32.67;43.43
1832;BME280;1680;48.106;11.708;2023-06-22T10:11:04;95422.56;;;32.52;42.62
1832;BME280;1680;48.106;11.708;2023-06-22T10:13:31;95416.84;;;32.79;43.59
1832;BME280;1680;48.106;11.708;2023-06-22T10:15:58;95418.97;;;32.67;41.55
1832;BME280;1680;48.106;11.708;2023-06-22T10:18:25;95408.09;;;32.67;41.59
1832;BME280;1680;48.106;11.708;2023-06-22T10:20:53;95407.16;;;32.82;42.75
1832;BME280;1680;48.106;11.708;2023-06-22T10:23:21;95410.06;;;32.92;40.58
1832;BME280;1680;48.106;11.708;2023-06-22T10:25:49;95402.41;;;32.75;41.08
1832;BME280;1680;48.106;11.708;2023-06-22T10:28:16;95403.72;;;32.85;40.36
1832;BME280;1680;48.106;11.708;2023-06-22T10:30:43;95401.09;;;32.92;41.47
1832;BME280;1680;48.106;11.708;2023-06-22T10:33:11;95398.84;;;32.97;41.25
1832;BME280;1680;48.106;11.708;2023-06-22T10:35:38;95361.41;;;32.84;41.74
1832;BME280;1680;48.106;11.708;2023-06-22T10:38:06;95390.56;;;33.42;41.65
1832;BME280;1680;48.106;11.708;2023-06-22T10:40:35;95401.56;;;33.53;40.54
1832;BME280;1680;48.106;11.708;2023-06-22T10:43:02;95390.47;;;33.65;39.05
1832;BME280;1680;48.106;11.708;2023-06-22T10:45:29;95395.53;;;33.63;40.44
1832;BME280;1680;48.106;11.708;2023-06-22T10:47:56;95373.41;;;33.68;39.84
1832;BME280;1680;48.106;11.708;2023-06-22T10:50:24;95380.50;;;33.46;39.36
1832;BME280;1680;48.106;11.708;2023-06-22T10:52:52;95378.25;;;33.52;39.49
1832;BME280;1680;48.106;11.708;2023-06-22T10:55:19;95374.72;;;33.80;40.05
1832;BME280;1680;48.106;11.708;2023-06-22T10:57:48;95381.00;;;33.88;41.57
1832;BME280;1680;48.106;11.708;2023-06-22T11:00:15;95337.28;;;33.71;39.73
1832;BME280;1680;48.106;11.708;2023-06-22T11:02:43;95332.50;;;33.61;37.77
1832;BME280;1680;48.106;11.708;2023-06-22T11:05:10;95361.66;;;33.96;37.70
1832;BME280;1680;48.106;11.708;2023-06-22T11:07:38;95369.50;;;34.41;36.63
1832;BME280;1680;48.106;11.708;2023-06-22T11:10:08;95371.69;;;34.65;36.27
1832;BME280;1680;48.106;11.708;2023-06-22T11:12:35;95361.91;;;35.14;35.00
1832;BME280;1680;48.106;11.708;2023-06-22T11:15:05;95352.56;;;35.22;34.74
1832;BME280;1680;48.106;11.708;2023-06-22T11:17:32;95352.56;;;35.19;34.83
1832;BME280;1680;48.106;11.708;2023-06-22T11:19:59;95360.31;;;35.10;35.32
1832;BME280;1680;48.106;11.708;2023-06-22T11:22:38;95356.06;;;35.16;34.97
1832;BME280;1680;48.106;11.708;2023-06-22T11:25:06;95355.00;;;34.74;35.49
1832;BME280;1680;48.106;11.708;2023-06-22T11:27:33;95353.19;;;34.95;35.46
1832;BME280;1680;48.106;11.708;2023-06-22T11:30:01;95349.25;;;34.89;35.50
1832;BME280;1680;48.106;11.708;2023-06-22T11:32:28;95353.94;;;34.88;36.37
1832;BME280;1680;48.106;11.708;2023-06-22T11:34:56;95352.47;;;35.05;35.01
1832;BME280;1680;48.106;11.708;2023-06-22T11:37:23;95358.59;;;34.88;36.40
1832;BME280;1680;48.106;11.708;2023-06-22T11:39:52;95350.47;;;34.95;35.85
1832;BME280;1680;48.106;11.708;2023-06-22T11:42:20;95345.03;;;35.02;35.96
1832;BME280;1680;48.106;11.708;2023-06-22T11:44:49;95327.59;;;35.13;36.60
1832;BME280;1680;48.106;11.708;2023-06-22T11:47:16;95339.31;;;35.17;35.92
1832;BME280;1680;48.106;11.708;2023-06-22T11:49:43;95337.59;;;34.92;35.44
1832;BME280;1680;48.106;11.708;2023-06-22T11:52:10;95325.19;;;35.05;35.58
1832;BME280;1680;48.106;11.708;2023-06-22T11:54:37;95329.81;;;34.90;36.27
1832;BME280;1680;48.106;11.708;2023-06-22T11:57:06;95321.97;;;34.82;35.86
1832;BME280;1680;48.106;11.708;2023-06-22T11:59:33;95321.44;;;35.34;36.28
1832;BME280;1680;48.106;11.708;2023-06-22T12:02:00;95324.63;;;35.46;35.38
1832;BME280;1680;48.106;11.708;2023-06-22T12:04:28;95311.22;;;35.10;35.61
1832;BME280;1680;48.106;11.708;2023-06-22T12:06:56;95321.91;;;34.78;37.61
1832;BME280;1680;48.106;11.708;2023-06-22T12:09:23;95313.28;;;34.66;38.79
1832;BME280;1680;48.106;11.708;2023-06-22T12:11:51;95320.59;;;35.12;38.39
1832;BME280;1680;48.106;11.708;2023-06-22T12:14:19;95311.34;;;35.38;37.94
1832;BME280;1680;48.106;11.708;2023-06-22T12:16:46;95310.22;;;35.53;37.31
1832;BME280;1680;48.106;11.708;2023-06-22T12:19:14;95298.09;;;35.47;38.16
1832;BME280;1680;48.106;11.708;2023-06-22T12:21:41;95302.78;;;35.46;37.67
1832;BME280;1680;48.106;11.708;2023-06-22T12:24:10;95291.75;;;35.15;37.83
1832;BME280;1680;48.106;11.708;2023-06-22T12:26:38;95296.22;;;34.79;38.63
1832;BME280;1680;48.106;11.708;2023-06-22T12:29:05;95293.19;;;34.38;39.72
1832;BME280;1680;48.106;11.708;2023-06-22T12:31:33;95283.53;;;34.47;39.86
1832;BME280;1680;48.106;11.708;2023-06-22T12:34:01;95277.78;;;34.59;39.30
1832;BME280;1680;48.106;11.708;2023-06-22T12:36:28;95276.78;;;34.88;38.72
1832;BME280;1680;48.106;11.708;2023-06-22T12:38:55;95274.03;;;34.81;38.75
1832;BME280;1680;48.106;11.708;2023-06-22T12:41:22;95269.16;;;35.21;38.25
1832;BME280;1680;48.106;11.708;2023-06-22T12:43:49;95266.22;;;35.65;38.08
1832;BME280;1680;48.106;11.708;2023-06-22T12:46:16;95265.47;;;35.95;37.21
1832;BME280;1680;48.106;11.708;2023-06-22T12:48:45;95256.47;;;35.74;37.19
1832;BME280;1680;48.106;11.708;2023-06-22T12:51:20;95252.97;;;35.81;36.35
1832;BME280;1680;48.106;11.708;2023-06-22T12:53:48;95247.53;;;35.94;36.86
1832;BME280;1680;48.106;11.708;2023-06-22T12:56:15;95245.19;;;35.86;36.10
1832;BME280;1680;48.106;11.708;2023-06-22T12:58:42;95252.97;;;35.98;35.72
1832;BME280;1680;48.106;11.708;2023-06-22T13:01:09;95246.00;;;36.00;35.94
1832;BME280;1680;48.106;11.708;2023-06-22T13:03:36;95249.09;;;35.95;36.22
1832;BME280;1680;48.106;11.708;2023-06-22T13:06:05;95260.78;;;35.82;35.30
1832;BME280;1680;48.106;11.708;2023-06-22T13:08:32;95259.22;;;35.91;36.04
1832;BME280;1680;48.106;11.708;2023-06-22T13:10:59;95259.25;;;36.40;34.72
1832;BME280;1680;48.106;11.708;2023-06-22T13:13:26;95260.00;;;36.65;34.96
1832;BME280;1680;48.106;11.708;2023-06-22T13:15:53;95256.53;;;36.33;34.70
1832;BME280;1680;48.106;11.708;2023-06-22T13:18:21;95254.59;;;36.30;34.83